Flight Track Log - Related Links

Times and Time Zones

All times are in EDT time to prevent confusion due to time zone crossing. See the EMD21 flight status page for this flight to view local times or setup timezone preferences in your user account.

Time Position Orientation Groundspeed Altitude Reporting Facility
EDT Latitude Longitude Course Direction KTS MPH feet Rate Location/Type
Tue 11:33:09 AM 29.9756 -97.9047 312° West 164 189 4,800  Level Houston Center
Tue 11:34:11 AM 30.0047 -97.9486 308° West 170 196 6,000 1,200 Climbing Houston Center
Tue 11:35:14 AM 30.0331 -97.9969 304° West 169 194 7,300 1,210 Climbing Houston Center
Tue 11:36:00 AM 30.1125 -98.1984 307° West  Level Estimated
Tue 11:36:15 AM 30.0614 -98.0411 307° West 171 197 8,500  Level Houston Center
Tue 11:37:00 AM 30.1490 -98.2545 307° West  Level Estimated
Tue 11:37:17 AM 30.0900 -98.0881 305° West 167 192 9,600  Level Houston Center
Tue 11:38:19 AM 30.1189 -98.1319 307° West 171 197 10,700 1,065 Climbing Houston Center
Tue 11:39:21 AM 30.1467 -98.1758 306° West 170 196 11,800 823 Climbing Houston Center
Tue 11:40:23 AM 30.1800 -98.2253 308° West 180 207 12,400 823 Climbing Houston Center
Tue 11:41:25 AM 30.2083 -98.2717 305° West 177 204 13,500 1,016 Climbing Houston Center
Tue 11:42:27 AM 30.2375 -98.3153 308° West 163 188 14,500 823 Climbing Houston Center
Tue 11:43:29 AM 30.2647 -98.3575 307° West 163 188 15,200 581 Climbing Houston Center
Tue 11:44:31 AM 30.2964 -98.4056 307° West 176 203 15,700 629 Climbing Houston Center
Tue 11:45:33 AM 30.3242 -98.4500 306° West 173 199 16,500 677 Climbing Houston Center
Tue 11:46:35 AM 30.3500 -98.4925 305° West 163 188 17,100 484 Climbing Houston Center
Tue 11:47:37 AM 30.3789 -98.5356 308° West 167 192 17,500 387 Climbing Houston Center
Tue 11:48:39 AM 30.4086 -98.5831 306° West 177 204 17,900 242 Climbing Houston Center
Tue 11:49:41 AM 30.4414 -98.6311 308° West 188 216 18,000 48 Climbing Houston Center
Tue 11:50:43 AM 30.4753 -98.6858 306° West 205 236 18,000  Level Houston Center
Tue 11:51:45 AM 30.5161 -98.7503 306° West 210 242 18,000  Level Houston Center
Tue 11:52:47 AM 30.5531 -98.8064 307° West 214 246 18,000  Level Houston Center
Tue 11:53:49 AM 30.5889 -98.8633 306° West 216 249 18,000  Level Houston Center
Tue 11:54:51 AM 30.6250 -98.9200 307° West 215 247 18,000  Level Houston Center
Tue 11:55:53 AM 30.6606 -98.9772 306° West 216 249 18,000  Level Houston Center
Tue 11:56:55 AM 30.6981 -99.0344 307° West 219 252 18,000  Level Houston Center
Tue 11:57:57 AM 30.7336 -99.0917 306° West 217 250 18,000  Level Houston Center
Tue 11:58:59 AM 30.7725 -99.1508 307° West 218 251 18,000  Level Houston Center
Tue 12:00:01 PM 30.8064 -99.2075 305° West 215 247 18,000  Level Houston Center
Tue 12:01:03 PM 30.8417 -99.2636 306° West 215 247 18,000  Level Houston Center
Tue 12:02:05 PM 30.8844 -99.3300 307° West 214 246 18,000 -48 Level Houston Center
Tue 12:03:08 PM 30.9189 -99.3867 305° West 215 247 17,900 -288 Descending Houston Center
Tue 12:04:10 PM 30.9567 -99.4456 307° West 224 258 17,400 -484 Descending Houston Center
Tue 12:05:12 PM 30.9931 -99.5033 306° West 221 254 16,900 -435 Descending Houston Center
Tue 12:06:14 PM 31.0319 -99.5642 307° West 232 267 16,500 -387 Descending Houston Center
Tue 12:07:16 PM 31.0697 -99.6264 305° West 233 268 16,100 -242 Descending Houston Center
Tue 12:08:18 PM 31.1150 -99.6972 307° West 228 262 16,000 -48 Descending Houston Center
Tue 12:09:20 PM 31.1494 -99.7525 306° West 213 245 16,000  Level Houston Center
Tue 12:10:22 PM 31.1828 -99.8103 304° West 214 246 16,000  Level Houston Center
Tue 12:11:24 PM 31.2189 -99.8664 307° West 215 247 16,000  Level Houston Center
Tue 12:12:26 PM 31.2536 -99.9214 306° West 213 245 16,000  Level Houston Center
Tue 12:13:28 PM 31.2942 -99.9861 306° West 208 239 16,000  Level Houston Center
Tue 12:14:30 PM 31.3272 -100.0394 306° West 203 234 16,000  Level Houston Center
Tue 12:15:32 PM 31.3592 -100.0931 305° West 201 231 16,000  Level Houston Center
Tue 12:16:05 PM 31.3803 -100.1289 305° West 208 239 16,000  Level Fort Worth Center
Tue 12:17:05 PM 31.4103 -100.1808 304° West 202 232 16,000  Level Fort Worth Center
Tue 12:18:05 PM 31.4447 -100.2331 308° West 202 232 16,000  Level Fort Worth Center
Tue 12:19:05 PM 31.4789 -100.2875 306° West 202 232 16,000  Level Fort Worth Center
Tue 12:20:05 PM 31.5111 -100.3422 305° West 202 232 16,000  Level Fort Worth Center
Tue 12:21:05 PM 31.5433 -100.3969 305° West 202 232 16,000  Level Fort Worth Center
Tue 12:21:44 PM 31.5625 -100.4233 310° West 201 231 16,000  Level Houston Center
Tue 12:24:05 PM 31.6417 -100.5561 305° West 202 232 16,000  Level Fort Worth Center
Tue 12:25:05 PM 31.6697 -100.6036 305° West 202 232 16,000  Level Fort Worth Center
Tue 12:26:05 PM 31.7039 -100.6561 307° West 202 232 16,000  Level Fort Worth Center
Tue 12:27:05 PM 31.7336 -100.7108 303° West 202 232 16,000  Level Fort Worth Center
Tue 12:28:05 PM 31.7658 -100.7608 307° West 202 232 16,000  Level Fort Worth Center
Tue 12:29:05 PM 31.7997 -100.8158 306° West 202 232 16,000  Level Fort Worth Center
Tue 12:30:05 PM 31.8339 -100.8708 306° West 202 232 16,000  Level Fort Worth Center
Tue 12:31:05 PM 31.8656 -100.9258 304° West 202 232 16,000  Level Fort Worth Center
Tue 12:32:05 PM 31.8975 -100.9786 305° West 202 232 16,000  Level Fort Worth Center
Tue 12:33:05 PM 31.9356 -101.0339 309° West 202 232 16,000  Level Fort Worth Center
Tue 12:34:05 PM 31.9653 -101.0889 303° West 202 232 16,000  Level Fort Worth Center
Tue 12:35:05 PM 31.9972 -101.1417 306° West 197 227 16,000  Level Fort Worth Center
Tue 12:36:05 PM 32.0289 -101.1944 305° West 203 234 16,000  Level Fort Worth Center
Tue 12:37:05 PM 32.0628 -101.2497 306° West 203 234 16,000  Level Fort Worth Center
Tue 12:38:05 PM 32.0925 -101.3025 304° West 203 234 16,000  Level Fort Worth Center
Tue 12:39:05 PM 32.1264 -101.3553 307° West 203 234 16,000  Level Fort Worth Center
Tue 12:40:05 PM 32.1600 -101.4133 304° West 203 234 16,000  Level Fort Worth Center
Tue 12:41:05 PM 32.1914 -101.4736 302° West 203 234 16,000  Level Fort Worth Center
Tue 12:42:05 PM 32.2231 -101.5267 305° West 203 234 16,000  Level Fort Worth Center
Tue 12:43:05 PM 32.2547 -101.5794 305° West 203 234 16,000  Level Fort Worth Center
Tue 12:44:05 PM 32.2883 -101.6350 306° West 203 234 16,000  Level Fort Worth Center
Tue 12:45:05 PM 32.3200 -101.6908 304° West 203 234 16,000  Level Fort Worth Center
Tue 12:46:05 PM 32.3536 -101.7439 307° West 203 234 16,000  Level Fort Worth Center
Tue 12:47:05 PM 32.3850 -101.7994 304° West 203 234 16,000  Level Fort Worth Center
Tue 12:48:05 PM 32.4186 -101.8553 306° West 203 234 16,000  Level Fort Worth Center
Tue 12:49:05 PM 32.4500 -101.9086 305° West 203 234 16,000  Level Fort Worth Center
Tue 12:50:05 PM 32.4836 -101.9644 306° West 203 234 16,000  Level Fort Worth Center
Tue 12:51:05 PM 32.5150 -102.0200 304° West 198 228 16,000  Level Fort Worth Center
Tue 12:52:05 PM 32.5464 -102.0736 305° West 198 228 16,000  Level Fort Worth Center
Tue 12:53:05 PM 32.5778 -102.1294 304° West 198 228 16,000  Level Fort Worth Center
Tue 12:54:05 PM 32.6111 -102.1828 307° West 203 234 16,000  Level Fort Worth Center
Tue 12:55:05 PM 32.6367 -102.2261 305° West 203 234 16,000  Level Fort Worth Center
Tue 12:56:05 PM 32.6756 -102.2950 304° West 208 239 16,000  Level Fort Worth Center
Tue 12:57:05 PM 32.7092 -102.3486 307° West 203 234 16,000  Level Fort Worth Center
Tue 12:58:05 PM 32.7422 -102.4072 304° West 203 234 16,000  Level Fort Worth Center
Tue 12:59:05 PM 32.7736 -102.4608 305° West 203 234 16,000  Level Fort Worth Center
Tue 01:00:05 PM 32.8047 -102.5169 303° West 203 234 16,000  Level Fort Worth Center
Tue 01:01:05 PM 32.8378 -102.5708 306° West 203 234 16,000  Level Fort Worth Center
Tue 01:02:05 PM 32.8650 -102.6217 303° West 203 234 16,000  Level Fort Worth Center
Tue 01:03:05 PM 32.8961 -102.6756 305° West 203 234 16,000  Level Fort Worth Center
Tue 01:04:05 PM 32.9272 -102.7292 305° West 203 234 16,000  Level Fort Worth Center
Tue 01:05:05 PM 32.9583 -102.7831 305° West 203 234 16,000  Level Fort Worth Center
Tue 01:06:05 PM 32.9892 -102.8419 302° West 203 234 16,000  Level Fort Worth Center
Tue 01:07:05 PM 33.0222 -102.8983 305° West 203 234 16,000  Level Fort Worth Center
Tue 01:08:05 PM 33.0533 -102.9525 304° West 203 234 16,000  Level Fort Worth Center
Tue 01:09:05 PM 33.0861 -103.0089 305° West 203 234 16,000  Level Fort Worth Center
Tue 01:10:05 PM 33.1172 -103.0631 304° West 203 234 16,000  Level Fort Worth Center
Tue 01:11:05 PM 33.1500 -103.1197 305° West 203 234 16,000  Level Fort Worth Center
Tue 01:12:05 PM 33.1831 -103.1764 305° West 203 234 16,000  Level Fort Worth Center
Tue 01:13:05 PM 33.2136 -103.2331 303° West 203 234 16,000  Level Fort Worth Center
Tue 01:14:05 PM 33.2467 -103.2897 305° West 203 234 16,000  Level Fort Worth Center
Tue 01:15:05 PM 33.2772 -103.3464 303° West 203 234 16,000  Level Fort Worth Center
Tue 01:16:05 PM 33.3081 -103.4033 303° West 203 234 16,000  Level Fort Worth Center
Tue 01:17:26 PM 33.3519 -103.4817 304° West 204 235 16,000  Level Albuquerque Center
Tue 01:18:28 PM 33.3839 -103.5389 304° West 207 238 16,000  Level Albuquerque Center
Tue 01:19:30 PM 33.4167 -103.5967 304° West 210 242 16,000  Level Albuquerque Center
Tue 01:20:32 PM 33.4472 -103.6561 302° West 209 241 16,000  Level Albuquerque Center
Tue 01:21:34 PM 33.4889 -103.7206 308° West 214 246 16,000  Level Albuquerque Center
Tue 01:22:36 PM 33.5222 -103.7828 303° West 207 238 16,000  Level Albuquerque Center
Tue 01:23:38 PM 33.5544 -103.8403 304° West 208 239 16,000  Level Albuquerque Center
Tue 01:24:40 PM 33.5903 -103.9022 305° West 211 243 16,000  Level Albuquerque Center
Tue 01:25:42 PM 33.6206 -103.9603 302° West 207 238 16,000  Level Albuquerque Center
Tue 01:26:44 PM 33.6556 -104.0225 304° West 209 241 16,000  Level Albuquerque Center
Tue 01:27:46 PM 33.6867 -104.0803 303° West 208 239 16,000  Level Albuquerque Center
Tue 01:28:48 PM 33.7192 -104.1383 304° West 210 242 16,000  Level Albuquerque Center
Tue 01:29:50 PM 33.7544 -104.1994 305° West 209 241 16,000  Level Albuquerque Center
Tue 01:30:52 PM 33.7844 -104.2578 302° West 206 237 16,000  Level Albuquerque Center
Tue 01:31:54 PM 33.8194 -104.3217 303° West 211 243 16,000  Level Albuquerque Center
Tue 01:32:56 PM 33.8508 -104.3786 304° West 207 238 16,000  Level Albuquerque Center
Tue 01:33:58 PM 33.8844 -104.4394 304° West 204 235 16,000  Level Albuquerque Center
Tue 01:35:00 PM 33.9156 -104.4981 303° West 207 238 16,000  Level Albuquerque Center
Tue 01:36:02 PM 33.9508 -104.5594 305° West 208 239 16,000  Level Albuquerque Center
Tue 01:37:05 PM 33.9817 -104.6167 303° West 204 235 16,000 -48 Level Albuquerque Center
Tue 01:38:07 PM 34.0150 -104.6789 303° West 206 237 15,900 -48 Descending Albuquerque Center
Tue 01:39:09 PM 34.0439 -104.7306 304° West 201 231 15,900  Level Albuquerque Center
Tue 01:40:11 PM 34.0744 -104.7853 304° West 196 226 15,900  Level Albuquerque Center
Tue 01:41:13 PM 34.1042 -104.8414 303° West 197 227 15,900  Level Albuquerque Center
Tue 01:42:15 PM 34.1344 -104.8975 303° West 197 227 15,900  Level Albuquerque Center
Tue 01:43:17 PM 34.1692 -104.9603 304° West 193 222 15,900  Level Albuquerque Center
Tue 01:44:19 PM 34.1981 -105.0156 302° West 193 222 15,900  Level Albuquerque Center
Tue 01:45:21 PM 34.2283 -105.0711 303° West 193 222 15,900  Level Albuquerque Center
Tue 01:46:23 PM 34.2592 -105.1278 303° West 196 226 15,900  Level Albuquerque Center
Tue 01:47:25 PM 34.2897 -105.1836 304° West 197 227 15,900  Level Albuquerque Center
Tue 01:48:27 PM 34.3208 -105.2414 303° West 200 230 15,900 97 Level Albuquerque Center
Tue 01:49:29 PM 34.3506 -105.2992 302° West 200 230 16,100 48 Climbing Albuquerque Center
Tue 01:50:31 PM 34.3875 -105.3658 304° West 202 232 16,000 -48 Descending Albuquerque Center
Tue 01:51:33 PM 34.4197 -105.4256 303° West 207 238 16,000  Level Albuquerque Center
Tue 01:52:35 PM 34.4503 -105.4844 302° West 206 237 16,000  Level Albuquerque Center
Tue 01:53:37 PM 34.4814 -105.5442 302° West 207 238 16,000  Level Albuquerque Center
Tue 01:54:39 PM 34.5122 -105.6025 303° West 205 236 16,000  Level Albuquerque Center
Tue 01:55:41 PM 34.5444 -105.6592 305° West 203 234 16,000  Level Albuquerque Center
Tue 01:56:43 PM 34.5739 -105.7175 302° West 202 232 16,000  Level Albuquerque Center
Tue 01:57:45 PM 34.6072 -105.7736 306° West 204 235 16,000 -387 Level Albuquerque Center
Tue 01:58:47 PM 34.6792 -105.7875 351° North 225 259 15,200 -968 Descending Albuquerque Center
Tue 01:59:49 PM 34.7461 -105.8139 342° North 242 278 14,000 -1,065 Descending Albuquerque Center
Tue 02:00:51 PM 34.8136 -105.8414 342° North 249 287 13,000 -484 Descending Albuquerque Center
Tue 02:01:53 PM 34.8397 -105.8997 299° West 234 269 13,000  Level Albuquerque Center
Tue 02:02:30 PM 34.8514 -105.9556 284° West 222 255 13,000  Level Albuquerque Center
Tue 02:02:54 PM 34.8564 -105.9828 283° West 212 244 13,000  Level Albuquerque Center
Tue 02:02:55 PM 34.8564 -105.9708 90° East 220 253 13,000  Level Albuquerque Center
Tue 02:03:49 PM 34.8719 -106.0461 284° West 208 239 13,000  Level Albuquerque Center
Tue 02:03:57 PM 34.8733 -106.0383 78° East 213 245 13,000  Level Albuquerque Center
Tue 02:04:55 PM 34.8894 -106.1192 284° West 208 239 13,000 -97 Level Albuquerque Center
Tue 02:04:59 PM 34.8908 -106.1208 315° West 210 242 12,900 -1,279 Descending Albuquerque Center
Tue 02:05:56 PM 34.8906 -106.1967 270° West 246 283 11,700 -1,258 Descending Albuquerque Center
Tue 02:06:01 PM 34.8919 -106.1997 299° West 234 269 11,600 -1,343 Descending Albuquerque Center
Tue 02:07:03 PM 34.8889 -106.2872 268° West 258 297 10,200 -828 Descending Albuquerque Center
Tue 02:07:57 PM 34.8889 -106.3681 270° West 234 269 10,000 -197 Descending Albuquerque Center
Tue 02:08:04 PM 34.8908 -106.3667 30° Northeast 239 275 10,000 -590 Level Albuquerque Center
Tue 02:08:58 PM 34.8914 -106.4425 271° West 213 245 9,400 -581 Descending Albuquerque Center
Tue 02:09:06 PM 34.8914 -106.4419 90° East 222 255 9,400 -771 Level Albuquerque Center
Tue 02:10:08 PM 34.9031 -106.5119 282° West 212 244 8,500 -919 Descending Albuquerque Center
Tue 02:11:10 PM 34.9228 -106.5747 291° West 201 231 7,500 -774 Descending Albuquerque Center
Tue 02:12:12 PM 34.9603 -106.6339 308° West 175 201 6,900 -655 Descending Albuquerque Center
Tue 02:13:00 PM 34.9906 -106.6553 330° Northwest 142 163 6,300 -677 Descending Albuquerque Center
Tue 02:13:14 PM 34.9975 -106.6525 18° North 151 174 6,200 -787 Descending Albuquerque Center
Tue 02:14:01 PM 35.0192 -106.6350 33° Northeast 110 127 5,500 -787 Descending Albuquerque Center
Tue 02:14:15 PM 35.0225 -106.6286 57° Northeast 116 133 5,400 -429 Descending Albuquerque Center
Tue 02:16:00 PM 35.0333 -106.6000 90° East  Level FlightAware Approximate

Login

Don't have an account? Register now (free) for customized features, flight alerts, and more!